sensor_id;sensor_type;location;lat;lon;timestamp;temperature;humidity
20866;DHT22;10593;48.398;10.698;2023-06-26T00:01:17;24.30;40.30
20866;DHT22;10593;48.398;10.698;2023-06-26T00:03:46;24.30;40.30
20866;DHT22;10593;48.398;10.698;2023-06-26T00:06:13;24.30;40.40
20866;DHT22;10593;48.398;10.698;2023-06-26T00:08:39;24.20;40.50
20866;DHT22;10593;48.398;10.698;2023-06-26T00:11:05;24.20;40.50
20866;DHT22;10593;48.398;10.698;2023-06-26T00:13:30;24.20;40.60
20866;DHT22;10593;48.398;10.698;2023-06-26T00:15:56;24.20;40.70
20866;DHT22;10593;48.398;10.698;2023-06-26T00:18:22;24.10;40.80
20866;DHT22;10593;48.398;10.698;2023-06-26T00:20:48;24.10;41.00
20866;DHT22;10593;48.398;10.698;2023-06-26T00:23:16;24.10;41.10
20866;DHT22;10593;48.398;10.698;2023-06-26T00:25:43;24.00;41.30
20866;DHT22;10593;48.398;10.698;2023-06-26T00:28:09;24.00;41.40
20866;DHT22;10593;48.398;10.698;2023-06-26T00:30:35;24.00;41.50
20866;DHT22;10593;48.398;10.698;2023-06-26T00:33:01;24.00;41.50
20866;DHT22;10593;48.398;10.698;2023-06-26T00:35:27;23.90;41.40
20866;DHT22;10593;48.398;10.698;2023-06-26T00:37:52;23.90;41.30
20866;DHT22;10593;48.398;10.698;2023-06-26T00:40:18;23.90;41.30
20866;DHT22;10593;48.398;10.698;2023-06-26T00:42:44;23.90;41.20
20866;DHT22;10593;48.398;10.698;2023-06-26T00:45:10;23.80;41.20
20866;DHT22;10593;48.398;10.698;2023-06-26T00:47:36;23.80;41.20
20866;DHT22;10593;48.398;10.698;2023-06-26T00:50:02;23.80;41.30
20866;DHT22;10593;48.398;10.698;2023-06-26T00:52:29;23.80;41.20
20866;DHT22;10593;48.398;10.698;2023-06-26T00:54:55;23.70;41.20
20866;DHT22;10593;48.398;10.698;2023-06-26T00:57:21;23.70;41.20
20866;DHT22;10593;48.398;10.698;2023-06-26T00:59:48;23.70;41.20
20866;DHT22;10593;48.398;10.698;2023-06-26T01:02:14;23.60;41.30
20866;DHT22;10593;48.398;10.698;2023-06-26T01:04:43;23.60;41.20
20866;DHT22;10593;48.398;10.698;2023-06-26T01:07:13;23.60;41.20
20866;DHT22;10593;48.398;10.698;2023-06-26T01:09:40;23.60;41.20
20866;DHT22;10593;48.398;10.698;2023-06-26T01:12:06;23.50;41.30
20866;DHT22;10593;48.398;10.698;2023-06-26T01:14:34;23.50;41.40
20866;DHT22;10593;48.398;10.698;2023-06-26T01:17:02;23.40;41.50
20866;DHT22;10593;48.398;10.698;2023-06-26T01:19:29;23.40;41.60
20866;DHT22;10593;48.398;10.698;2023-06-26T01:24:56;23.40;41.60
20866;DHT22;10593;48.398;10.698;2023-06-26T01:27:50;23.30;41.60
20866;DHT22;10593;48.398;10.698;2023-06-26T01:30:18;23.30;41.50
20866;DHT22;10593;48.398;10.698;2023-06-26T01:32:45;23.30;41.50
20866;DHT22;10593;48.398;10.698;2023-06-26T01:35:12;23.30;41.60
20866;DHT22;10593;48.398;10.698;2023-06-26T01:37:39;23.30;41.60
20866;DHT22;10593;48.398;10.698;2023-06-26T01:40:05;23.20;41.60
20866;DHT22;10593;48.398;10.698;2023-06-26T01:42:33;23.10;41.60
20866;DHT22;10593;48.398;10.698;2023-06-26T01:45:03;23.10;41.90
20866;DHT22;10593;48.398;10.698;2023-06-26T01:47:37;23.10;41.90
20866;DHT22;10593;48.398;10.698;2023-06-26T01:50:11;23.00;41.80
20866;DHT22;10593;48.398;10.698;2023-06-26T01:52:46;23.00;41.80
20866;DHT22;10593;48.398;10.698;2023-06-26T01:55:51;23.00;41.90
20866;DHT22;10593;48.398;10.698;2023-06-26T01:58:24;23.00;41.90
20866;DHT22;10593;48.398;10.698;2023-06-26T02:00:51;23.00;42.00
20866;DHT22;10593;48.398;10.698;2023-06-26T02:03:16;22.90;42.00
20866;DHT22;10593;48.398;10.698;2023-06-26T02:05:43;22.90;42.10
20866;DHT22;10593;48.398;10.698;2023-06-26T02:08:10;22.90;42.10
20866;DHT22;10593;48.398;10.698;2023-06-26T02:10:38;22.80;42.00
20866;DHT22;10593;48.398;10.698;2023-06-26T02:13:04;22.80;42.10
20866;DHT22;10593;48.398;10.698;2023-06-26T02:15:29;22.80;42.10
20866;DHT22;10593;48.398;10.698;2023-06-26T02:17:55;22.80;42.20
20866;DHT22;10593;48.398;10.698;2023-06-26T02:20:21;22.70;42.30
20866;DHT22;10593;48.398;10.698;2023-06-26T02:22:46;22.70;42.40
20866;DHT22;10593;48.398;10.698;2023-06-26T02:25:12;22.70;42.60
20866;DHT22;10593;48.398;10.698;2023-06-26T02:27:38;22.60;42.60
20866;DHT22;10593;48.398;10.698;2023-06-26T02:30:04;22.60;42.70
20866;DHT22;10593;48.398;10.698;2023-06-26T02:32:30;22.60;42.70
20866;DHT22;10593;48.398;10.698;2023-06-26T02:34:56;22.60;42.70
20866;DHT22;10593;48.398;10.698;2023-06-26T02:37:22;22.50;42.70
20866;DHT22;10593;48.398;10.698;2023-06-26T02:39:47;22.50;42.70
20866;DHT22;10593;48.398;10.698;2023-06-26T02:42:13;22.50;42.80
20866;DHT22;10593;48.398;10.698;2023-06-26T02:44:39;22.50;42.80
20866;DHT22;10593;48.398;10.698;2023-06-26T02:47:05;22.50;42.80
20866;DHT22;10593;48.398;10.698;2023-06-26T02:49:31;22.40;42.80
20866;DHT22;10593;48.398;10.698;2023-06-26T02:51:56;22.40;42.90
20866;DHT22;10593;48.398;10.698;2023-06-26T02:54:22;22.40;43.00
20866;DHT22;10593;48.398;10.698;2023-06-26T02:56:47;22.40;43.00
20866;DHT22;10593;48.398;10.698;2023-06-26T02:59:13;22.30;42.90
20866;DHT22;10593;48.398;10.698;2023-06-26T03:01:39;22.30;42.90
20866;DHT22;10593;48.398;10.698;2023-06-26T03:04:05;22.30;42.90
20866;DHT22;10593;48.398;10.698;2023-06-26T03:06:30;22.30;42.90
20866;DHT22;10593;48.398;10.698;2023-06-26T03:08:56;22.20;42.70
20866;DHT22;10593;48.398;10.698;2023-06-26T03:11:22;22.20;42.70
20866;DHT22;10593;48.398;10.698;2023-06-26T03:13:47;22.20;42.70
20866;DHT22;10593;48.398;10.698;2023-06-26T03:16:13;22.20;42.70
20866;DHT22;10593;48.398;10.698;2023-06-26T03:18:38;22.20;42.90
20866;DHT22;10593;48.398;10.698;2023-06-26T03:21:04;22.10;42.90
20866;DHT22;10593;48.398;10.698;2023-06-26T03:23:30;22.10;42.90
20866;DHT22;10593;48.398;10.698;2023-06-26T03:25:56;22.10;42.90
20866;DHT22;10593;48.398;10.698;2023-06-26T03:28:21;22.10;43.00
20866;DHT22;10593;48.398;10.698;2023-06-26T03:30:47;22.00;43.00
20866;DHT22;10593;48.398;10.698;2023-06-26T03:33:13;22.00;43.10
20866;DHT22;10593;48.398;10.698;2023-06-26T03:35:38;22.00;43.10
20866;DHT22;10593;48.398;10.698;2023-06-26T03:38:04;22.00;43.20
20866;DHT22;10593;48.398;10.698;2023-06-26T03:40:30;21.90;43.00
20866;DHT22;10593;48.398;10.698;2023-06-26T03:42:56;21.90;43.00
20866;DHT22;10593;48.398;10.698;2023-06-26T03:45:22;22.00;43.10
20866;DHT22;10593;48.398;10.698;2023-06-26T03:47:48;21.90;43.10
20866;DHT22;10593;48.398;10.698;2023-06-26T03:50:18;21.90;43.10
20866;DHT22;10593;48.398;10.698;2023-06-26T03:52:44;21.80;43.10
20866;DHT22;10593;48.398;10.698;2023-06-26T03:55:10;21.90;43.30
20866;DHT22;10593;48.398;10.698;2023-06-26T03:57:35;21.80;43.30
20866;DHT22;10593;48.398;10.698;2023-06-26T04:00:01;21.80;43.40
20866;DHT22;10593;48.398;10.698;2023-06-26T04:02:33;21.80;43.50
20866;DHT22;10593;48.398;10.698;2023-06-26T04:05:00;21.80;43.60
20866;DHT22;10593;48.398;10.698;2023-06-26T04:07:26;21.80;43.50
20866;DHT22;10593;48.398;10.698;2023-06-26T04:09:51;21.80;43.50
20866;DHT22;10593;48.398;10.698;2023-06-26T04:12:17;21.80;43.50
20866;DHT22;10593;48.398;10.698;2023-06-26T04:14:43;21.80;43.60
20866;DHT22;10593;48.398;10.698;2023-06-26T04:17:09;21.80;43.60
20866;DHT22;10593;48.398;10.698;2023-06-26T04:19:35;21.80;43.60
20866;DHT22;10593;48.398;10.698;2023-06-26T04:22:01;21.80;43.70
20866;DHT22;10593;48.398;10.698;2023-06-26T04:24:27;21.80;43.80
20866;DHT22;10593;48.398;10.698;2023-06-26T04:26:53;21.80;43.90
20866;DHT22;10593;48.398;10.698;2023-06-26T04:29:25;21.80;43.90
20866;DHT22;10593;48.398;10.698;2023-06-26T04:31:52;21.80;43.90
20866;DHT22;10593;48.398;10.698;2023-06-26T04:34:24;21.80;43.90
20866;DHT22;10593;48.398;10.698;2023-06-26T04:36:50;21.80;43.90
20866;DHT22;10593;48.398;10.698;2023-06-26T04:39:17;21.80;43.90
20866;DHT22;10593;48.398;10.698;2023-06-26T04:41:44;21.80;44.00
20866;DHT22;10593;48.398;10.698;2023-06-26T04:44:10;21.90;44.30
20866;DHT22;10593;48.398;10.698;2023-06-26T04:46:37;21.90;44.40
20866;DHT22;10593;48.398;10.698;2023-06-26T04:49:07;21.90;44.40
20866;DHT22;10593;48.398;10.698;2023-06-26T04:51:33;21.90;44.40
20866;DHT22;10593;48.398;10.698;2023-06-26T04:54:03;21.90;44.40
20866;DHT22;10593;48.398;10.698;2023-06-26T04:56:29;22.00;44.40
20866;DHT22;10593;48.398;10.698;2023-06-26T04:58:56;22.00;44.40
20866;DHT22;10593;48.398;10.698;2023-06-26T05:01:21;22.00;44.40
20866;DHT22;10593;48.398;10.698;2023-06-26T05:03:47;22.10;44.40
20866;DHT22;10593;48.398;10.698;2023-06-26T05:06:13;22.10;44.70
20866;DHT22;10593;48.398;10.698;2023-06-26T05:08:38;22.10;44.80
20866;DHT22;10593;48.398;10.698;2023-06-26T05:11:04;22.20;44.80
20866;DHT22;10593;48.398;10.698;2023-06-26T05:13:30;22.20;44.80
20866;DHT22;10593;48.398;10.698;2023-06-26T05:15:55;22.20;45.00
20866;DHT22;10593;48.398;10.698;2023-06-26T05:18:21;22.20;45.00
20866;DHT22;10593;48.398;10.698;2023-06-26T05:20:47;22.30;45.00
20866;DHT22;10593;48.398;10.698;2023-06-26T05:23:13;22.30;45.00
20866;DHT22;10593;48.398;10.698;2023-06-26T05:25:41;22.30;45.00
20866;DHT22;10593;48.398;10.698;2023-06-26T05:28:07;22.40;45.20
20866;DHT22;10593;48.398;10.698;2023-06-26T05:30:36;22.50;45.40
20866;DHT22;10593;48.398;10.698;2023-06-26T05:33:02;22.50;45.40
20866;DHT22;10593;48.398;10.698;2023-06-26T05:35:29;22.50;45.40
20866;DHT22;10593;48.398;10.698;2023-06-26T05:37:57;22.60;45.40
20866;DHT22;10593;48.398;10.698;2023-06-26T05:40:23;22.60;45.40
20866;DHT22;10593;48.398;10.698;2023-06-26T05:42:50;22.70;45.70
20866;DHT22;10593;48.398;10.698;2023-06-26T05:45:16;22.70;45.50
20866;DHT22;10593;48.398;10.698;2023-06-26T05:47:42;22.80;45.60
20866;DHT22;10593;48.398;10.698;2023-06-26T05:50:09;22.80;45.60
20866;DHT22;10593;48.398;10.698;2023-06-26T05:52:35;22.90;45.60
20866;DHT22;10593;48.398;10.698;2023-06-26T05:55:02;22.90;45.50
20866;DHT22;10593;48.398;10.698;2023-06-26T05:57:29;23.00;45.50
20866;DHT22;10593;48.398;10.698;2023-06-26T05:59:56;23.00;45.60
20866;DHT22;10593;48.398;10.698;2023-06-26T06:02:22;23.00;45.60
20866;DHT22;10593;48.398;10.698;2023-06-26T06:04:48;23.10;45.60
20866;DHT22;10593;48.398;10.698;2023-06-26T06:07:14;23.10;45.70
20866;DHT22;10593;48.398;10.698;2023-06-26T06:09:39;23.20;45.80
20866;DHT22;10593;48.398;10.698;2023-06-26T06:12:06;23.30;45.90
20866;DHT22;10593;48.398;10.698;2023-06-26T06:14:33;23.30;46.00
20866;DHT22;10593;48.398;10.698;2023-06-26T06:16:59;23.40;46.20
20866;DHT22;10593;48.398;10.698;2023-06-26T06:19:26;23.40;46.30
20866;DHT22;10593;48.398;10.698;2023-06-26T06:21:51;23.50;46.50
20866;DHT22;10593;48.398;10.698;2023-06-26T06:24:17;23.50;46.60
20866;DHT22;10593;48.398;10.698;2023-06-26T06:26:43;23.60;46.60
20866;DHT22;10593;48.398;10.698;2023-06-26T06:29:09;23.70;46.50
20866;DHT22;10593;48.398;10.698;2023-06-26T06:31:35;23.70;46.20
20866;DHT22;10593;48.398;10.698;2023-06-26T06:34:00;23.80;46.20
20866;DHT22;10593;48.398;10.698;2023-06-26T06:36:26;23.80;46.20
20866;DHT22;10593;48.398;10.698;2023-06-26T06:38:52;23.90;46.10
20866;DHT22;10593;48.398;10.698;2023-06-26T06:43:45;24.10;46.30
20866;DHT22;10593;48.398;10.698;2023-06-26T06:46:10;24.10;46.20
20866;DHT22;10593;48.398;10.698;2023-06-26T06:48:36;24.20;45.90
20866;DHT22;10593;48.398;10.698;2023-06-26T06:51:01;24.30;46.00
20866;DHT22;10593;48.398;10.698;2023-06-26T06:53:27;24.40;46.10
20866;DHT22;10593;48.398;10.698;2023-06-26T06:55:53;24.40;45.70
20866;DHT22;10593;48.398;10.698;2023-06-26T06:58:18;24.50;45.70
20866;DHT22;10593;48.398;10.698;2023-06-26T07:00:45;24.60;45.70
20866;DHT22;10593;48.398;10.698;2023-06-26T07:03:11;24.60;45.80
20866;DHT22;10593;48.398;10.698;2023-06-26T07:05:37;24.70;45.70
20866;DHT22;10593;48.398;10.698;2023-06-26T07:08:03;24.70;45.70
20866;DHT22;10593;48.398;10.698;2023-06-26T07:10:29;24.80;45.70
20866;DHT22;10593;48.398;10.698;2023-06-26T07:12:56;24.90;45.20
20866;DHT22;10593;48.398;10.698;2023-06-26T07:15:22;25.00;45.10
20866;DHT22;10593;48.398;10.698;2023-06-26T07:17:47;25.00;45.40
20866;DHT22;10593;48.398;10.698;2023-06-26T07:20:13;25.10;45.20
20866;DHT22;10593;48.398;10.698;2023-06-26T07:22:41;25.10;45.10
20866;DHT22;10593;48.398;10.698;2023-06-26T07:25:08;25.10;45.30
20866;DHT22;10593;48.398;10.698;2023-06-26T07:27:35;25.20;45.20
20866;DHT22;10593;48.398;10.698;2023-06-26T07:30:02;25.30;44.90
20866;DHT22;10593;48.398;10.698;2023-06-26T07:32:28;25.30;45.00
20866;DHT22;10593;48.398;10.698;2023-06-26T07:34:53;25.40;45.00
20866;DHT22;10593;48.398;10.698;2023-06-26T07:37:19;25.40;45.60
20866;DHT22;10593;48.398;10.698;2023-06-26T07:39:45;25.50;44.80
20866;DHT22;10593;48.398;10.698;2023-06-26T07:42:10;25.60;45.00
20866;DHT22;10593;48.398;10.698;2023-06-26T07:44:36;25.60;44.60
20866;DHT22;10593;48.398;10.698;2023-06-26T07:47:02;25.70;44.80
20866;DHT22;10593;48.398;10.698;2023-06-26T07:49:28;25.80;44.90
20866;DHT22;10593;48.398;10.698;2023-06-26T07:51:53;25.90;44.60
20866;DHT22;10593;48.398;10.698;2023-06-26T07:54:19;25.90;44.20
20866;DHT22;10593;48.398;10.698;2023-06-26T07:56:59;26.00;44.30
20866;DHT22;10593;48.398;10.698;2023-06-26T07:59:27;26.10;44.70
20866;DHT22;10593;48.398;10.698;2023-06-26T08:01:56;26.10;44.70
20866;DHT22;10593;48.398;10.698;2023-06-26T08:04:24;26.20;44.50
20866;DHT22;10593;48.398;10.698;2023-06-26T08:06:53;26.20;44.20
20866;DHT22;10593;48.398;10.698;2023-06-26T08:09:22;26.30;44.10
20866;DHT22;10593;48.398;10.698;2023-06-26T08:11:49;26.40;43.90
20866;DHT22;10593;48.398;10.698;2023-06-26T08:14:16;26.40;43.70
20866;DHT22;10593;48.398;10.698;2023-06-26T08:16:43;26.60;43.70
20866;DHT22;10593;48.398;10.698;2023-06-26T08:19:09;26.60;43.30
20866;DHT22;10593;48.398;10.698;2023-06-26T08:21:36;26.70;43.20
20866;DHT22;10593;48.398;10.698;2023-06-26T08:24:02;26.70;43.10
20866;DHT22;10593;48.398;10.698;2023-06-26T08:26:28;26.80;43.00
20866;DHT22;10593;48.398;10.698;2023-06-26T08:28:54;26.80;42.90
20866;DHT22;10593;48.398;10.698;2023-06-26T08:31:20;26.90;42.70
20866;DHT22;10593;48.398;10.698;2023-06-26T08:33:46;27.00;42.90
20866;DHT22;10593;48.398;10.698;2023-06-26T08:36:12;27.00;43.00
20866;DHT22;10593;48.398;10.698;2023-06-26T08:38:38;27.10;42.50
20866;DHT22;10593;48.398;10.698;2023-06-26T08:41:07;27.10;42.30
20866;DHT22;10593;48.398;10.698;2023-06-26T08:43:33;27.20;42.30
20866;DHT22;10593;48.398;10.698;2023-06-26T08:46:00;27.20;42.30
20866;DHT22;10593;48.398;10.698;2023-06-26T08:48:26;27.30;41.90
20866;DHT22;10593;48.398;10.698;2023-06-26T08:50:57;27.30;41.70
20866;DHT22;10593;48.398;10.698;2023-06-26T08:53:36;27.40;41.30
20866;DHT22;10593;48.398;10.698;2023-06-26T08:56:18;27.40;41.20
20866;DHT22;10593;48.398;10.698;2023-06-26T08:58:46;27.50;41.50
20866;DHT22;10593;48.398;10.698;2023-06-26T09:01:13;27.50;41.20
20866;DHT22;10593;48.398;10.698;2023-06-26T09:03:39;27.50;40.90
20866;DHT22;10593;48.398;10.698;2023-06-26T09:06:07;27.60;40.60
20866;DHT22;10593;48.398;10.698;2023-06-26T09:08:33;27.60;40.60
20866;DHT22;10593;48.398;10.698;2023-06-26T09:10:58;27.70;40.70
20866;DHT22;10593;48.398;10.698;2023-06-26T09:13:24;27.70;39.80
20866;DHT22;10593;48.398;10.698;2023-06-26T09:15:53;27.70;39.30
20866;DHT22;10593;48.398;10.698;2023-06-26T09:18:21;27.80;39.00
20866;DHT22;10593;48.398;10.698;2023-06-26T09:20:50;27.80;39.20
20866;DHT22;10593;48.398;10.698;2023-06-26T09:23:16;27.80;39.00
20866;DHT22;10593;48.398;10.698;2023-06-26T09:25:42;27.90;39.00
20866;DHT22;10593;48.398;10.698;2023-06-26T09:28:08;27.90;39.10
20866;DHT22;10593;48.398;10.698;2023-06-26T09:30:35;27.90;38.80
20866;DHT22;10593;48.398;10.698;2023-06-26T09:33:18;28.00;39.00
20866;DHT22;10593;48.398;10.698;2023-06-26T09:35:46;28.10;38.80
20866;DHT22;10593;48.398;10.698;2023-06-26T09:38:13;28.10;38.80
20866;DHT22;10593;48.398;10.698;2023-06-26T09:40:40;28.10;38.50
20866;DHT22;10593;48.398;10.698;2023-06-26T09:43:07;28.10;37.80
20866;DHT22;10593;48.398;10.698;2023-06-26T09:45:35;28.20;37.60
20866;DHT22;10593;48.398;10.698;2023-06-26T09:48:03;28.20;37.70
20866;DHT22;10593;48.398;10.698;2023-06-26T09:50:29;28.20;37.70
20866;DHT22;10593;48.398;10.698;2023-06-26T09:53:06;28.20;37.60
20866;DHT22;10593;48.398;10.698;2023-06-26T09:55:37;28.30;37.60
20866;DHT22;10593;48.398;10.698;2023-06-26T09:58:03;28.30;37.70
20866;DHT22;10593;48.398;10.698;2023-06-26T10:00:31;28.30;37.70
20866;DHT22;10593;48.398;10.698;2023-06-26T10:02:58;28.40;37.50
20866;DHT22;10593;48.398;10.698;2023-06-26T10:05:24;28.40;37.40
20866;DHT22;10593;48.398;10.698;2023-06-26T10:07:49;28.40;37.20
20866;DHT22;10593;48.398;10.698;2023-06-26T10:10:16;28.40;37.20
20866;DHT22;10593;48.398;10.698;2023-06-26T10:12:45;28.40;36.90
20866;DHT22;10593;48.398;10.698;2023-06-26T10:15:15;28.50;36.60
20866;DHT22;10593;48.398;10.698;2023-06-26T10:17:43;28.50;37.00
20866;DHT22;10593;48.398;10.698;2023-06-26T10:20:13;28.50;37.00
20866;DHT22;10593;48.398;10.698;2023-06-26T10:22:44;28.60;37.20
20866;DHT22;10593;48.398;10.698;2023-06-26T10:25:13;28.60;37.70
20866;DHT22;10593;48.398;10.698;2023-06-26T10:27:45;28.60;37.00
20866;DHT22;10593;48.398;10.698;2023-06-26T10:30:24;28.60;37.10
20866;DHT22;10593;48.398;10.698;2023-06-26T10:32:54;28.70;37.40
20866;DHT22;10593;48.398;10.698;2023-06-26T10:35:21;28.80;37.10
20866;DHT22;10593;48.398;10.698;2023-06-26T10:37:48;28.80;36.80
20866;DHT22;10593;48.398;10.698;2023-06-26T10:40:28;28.80;36.80
20866;DHT22;10593;48.398;10.698;2023-06-26T10:43:07;28.80;36.70
20866;DHT22;10593;48.398;10.698;2023-06-26T10:45:34;28.90;36.70
20866;DHT22;10593;48.398;10.698;2023-06-26T10:48:01;28.90;36.50
20866;DHT22;10593;48.398;10.698;2023-06-26T10:50:33;28.90;36.70
20866;DHT22;10593;48.398;10.698;2023-06-26T10:56:03;29.00;36.90
20866;DHT22;10593;48.398;10.698;2023-06-26T11:01:17;29.00;36.70
20866;DHT22;10593;48.398;10.698;2023-06-26T11:03:48;29.10;36.80
20866;DHT22;10593;48.398;10.698;2023-06-26T11:06:27;29.00;36.60
20866;DHT22;10593;48.398;10.698;2023-06-26T11:14:25;29.20;36.90
20866;DHT22;10593;48.398;10.698;2023-06-26T11:16:52;29.10;37.00
20866;DHT22;10593;48.398;10.698;2023-06-26T11:19:20;29.20;37.10
20866;DHT22;10593;48.398;10.698;2023-06-26T11:21:46;29.20;37.00
20866;DHT22;10593;48.398;10.698;2023-06-26T11:24:13;29.20;37.10
20866;DHT22;10593;48.398;10.698;2023-06-26T11:26:44;29.20;37.00
20866;DHT22;10593;48.398;10.698;2023-06-26T11:29:11;29.30;36.50
20866;DHT22;10593;48.398;10.698;2023-06-26T11:31:38;29.40;36.30
20866;DHT22;10593;48.398;10.698;2023-06-26T11:34:11;29.30;35.80
20866;DHT22;10593;48.398;10.698;2023-06-26T11:36:39;29.40;35.50
20866;DHT22;10593;48.398;10.698;2023-06-26T11:39:07;29.40;35.30
20866;DHT22;10593;48.398;10.698;2023-06-26T11:41:35;29.30;35.00
20866;DHT22;10593;48.398;10.698;2023-06-26T11:44:07;29.30;34.90
20866;DHT22;10593;48.398;10.698;2023-06-26T11:46:34;29.30;35.00
20866;DHT22;10593;48.398;10.698;2023-06-26T11:49:05;29.40;34.70
20866;DHT22;10593;48.398;10.698;2023-06-26T11:51:34;29.30;34.50
20866;DHT22;10593;48.398;10.698;2023-06-26T11:54:02;29.30;34.60
20866;DHT22;10593;48.398;10.698;2023-06-26T11:56:29;29.30;34.70
20866;DHT22;10593;48.398;10.698;2023-06-26T12:04:16;29.30;34.60
20866;DHT22;10593;48.398;10.698;2023-06-26T12:06:51;29.40;34.60
20866;DHT22;10593;48.398;10.698;2023-06-26T12:09:23;29.40;34.60
20866;DHT22;10593;48.398;10.698;2023-06-26T12:11:53;29.50;34.20
20866;DHT22;10593;48.398;10.698;2023-06-26T12:14:20;29.50;33.80
20866;DHT22;10593;48.398;10.698;2023-06-26T12:16:47;29.60;33.60
20866;DHT22;10593;48.398;10.698;2023-06-26T12:19:13;29.60;33.60
20866;DHT22;10593;48.398;10.698;2023-06-26T12:24:19;29.70;33.60
20866;DHT22;10593;48.398;10.698;2023-06-26T12:26:54;29.70;33.20
20866;DHT22;10593;48.398;10.698;2023-06-26T12:29:31;29.70;33.00
20866;DHT22;10593;48.398;10.698;2023-06-26T12:31:58;29.80;33.10
20866;DHT22;10593;48.398;10.698;2023-06-26T12:34:32;29.80;33.40
20866;DHT22;10593;48.398;10.698;2023-06-26T12:37:10;29.80;33.50
20866;DHT22;10593;48.398;10.698;2023-06-26T12:39:49;29.90;33.50
20866;DHT22;10593;48.398;10.698;2023-06-26T12:42:25;29.90;33.30
20866;DHT22;10593;48.398;10.698;2023-06-26T12:44:53;29.90;33.40
20866;DHT22;10593;48.398;10.698;2023-06-26T12:47:25;30.00;33.30
20866;DHT22;10593;48.398;10.698;2023-06-26T12:49:52;30.10;33.30
20866;DHT22;10593;48.398;10.698;2023-06-26T12:52:21;30.00;33.70
20866;DHT22;10593;48.398;10.698;2023-06-26T12:54:51;30.10;33.50
20866;DHT22;10593;48.398;10.698;2023-06-26T12:57:18;30.10;32.90
20866;DHT22;10593;48.398;10.698;2023-06-26T12:59:43;30.10;32.70
20866;DHT22;10593;48.398;10.698;2023-06-26T13:02:09;30.20;32.80
20866;DHT22;10593;48.398;10.698;2023-06-26T13:04:37;30.20;32.80
20866;DHT22;10593;48.398;10.698;2023-06-26T13:07:05;30.20;33.00
20866;DHT22;10593;48.398;10.698;2023-06-26T13:09:34;30.30;32.90
20866;DHT22;10593;48.398;10.698;2023-06-26T13:12:02;30.20;32.70
20866;DHT22;10593;48.398;10.698;2023-06-26T13:14:29;30.30;33.00
20866;DHT22;10593;48.398;10.698;2023-06-26T13:16:55;30.30;32.70
20866;DHT22;10593;48.398;10.698;2023-06-26T13:19:21;30.40;32.60
20866;DHT22;10593;48.398;10.698;2023-06-26T13:21:47;30.40;32.70
20866;DHT22;10593;48.398;10.698;2023-06-26T13:24:12;30.40;32.90
20866;DHT22;10593;48.398;10.698;2023-06-26T13:26:38;30.40;33.00
20866;DHT22;10593;48.398;10.698;2023-06-26T13:29:05;30.40;32.90
20866;DHT22;10593;48.398;10.698;2023-06-26T13:31:31;30.50;32.40
20866;DHT22;10593;48.398;10.698;2023-06-26T13:33:58;30.50;32.20
20866;DHT22;10593;48.398;10.698;2023-06-26T13:36:25;30.50;32.40
20866;DHT22;10593;48.398;10.698;2023-06-26T13:38:51;30.50;32.30
20866;DHT22;10593;48.398;10.698;2023-06-26T13:41:21;30.60;32.20
20866;DHT22;10593;48.398;10.698;2023-06-26T13:43:48;30.50;32.10
20866;DHT22;10593;48.398;10.698;2023-06-26T13:46:14;30.60;32.00
20866;DHT22;10593;48.398;10.698;2023-06-26T13:48:40;30.50;32.00
20866;DHT22;10593;48.398;10.698;2023-06-26T13:51:06;30.50;32.20
20866;DHT22;10593;48.398;10.698;2023-06-26T13:53:32;30.50;32.20
20866;DHT22;10593;48.398;10.698;2023-06-26T13:55:57;30.50;32.30
20866;DHT22;10593;48.398;10.698;2023-06-26T13:58:23;30.50;32.50
20866;DHT22;10593;48.398;10.698;2023-06-26T14:00:52;30.50;32.50
20866;DHT22;10593;48.398;10.698;2023-06-26T14:03:19;30.50;32.40
20866;DHT22;10593;48.398;10.698;2023-06-26T14:05:44;30.50;32.60
20866;DHT22;10593;48.398;10.698;2023-06-26T14:08:10;30.50;32.90
20866;DHT22;10593;48.398;10.698;2023-06-26T14:10:36;30.50;33.50
20866;DHT22;10593;48.398;10.698;2023-06-26T14:13:03;30.50;33.70
20866;DHT22;10593;48.398;10.698;2023-06-26T14:15:29;30.50;33.60
20866;DHT22;10593;48.398;10.698;2023-06-26T14:17:55;30.60;33.60
20866;DHT22;10593;48.398;10.698;2023-06-26T14:20:22;30.60;33.50
20866;DHT22;10593;48.398;10.698;2023-06-26T14:22:48;30.60;33.40
20866;DHT22;10593;48.398;10.698;2023-06-26T14:25:16;30.60;33.50
20866;DHT22;10593;48.398;10.698;2023-06-26T14:27:41;30.60;33.50
20866;DHT22;10593;48.398;10.698;2023-06-26T14:30:08;30.70;33.80
20866;DHT22;10593;48.398;10.698;2023-06-26T14:32:34;30.70;33.70
20866;DHT22;10593;48.398;10.698;2023-06-26T14:35:01;30.70;33.60
20866;DHT22;10593;48.398;10.698;2023-06-26T14:37:28;30.80;33.70
20866;DHT22;10593;48.398;10.698;2023-06-26T14:39:55;30.90;33.70
20866;DHT22;10593;48.398;10.698;2023-06-26T14:42:22;30.90;33.70
20866;DHT22;10593;48.398;10.698;2023-06-26T14:44:48;30.90;33.70
20866;DHT22;10593;48.398;10.698;2023-06-26T14:47:16;30.90;33.70
20866;DHT22;10593;48.398;10.698;2023-06-26T14:49:42;30.90;33.60
20866;DHT22;10593;48.398;10.698;2023-06-26T14:52:08;30.90;33.70
20866;DHT22;10593;48.398;10.698;2023-06-26T14:54:34;30.90;34.00
20866;DHT22;10593;48.398;10.698;2023-06-26T14:57:05;30.90;33.80
20866;DHT22;10593;48.398;10.698;2023-06-26T14:59:32;31.00;34.00
20866;DHT22;10593;48.398;10.698;2023-06-26T15:01:58;30.90;34.30
20866;DHT22;10593;48.398;10.698;2023-06-26T15:04:24;31.00;34.20
20866;DHT22;10593;48.398;10.698;2023-06-26T15:06:49;31.00;34.00
20866;DHT22;10593;48.398;10.698;2023-06-26T15:09:15;31.00;34.10
20866;DHT22;10593;48.398;10.698;2023-06-26T15:11:41;31.00;33.90
20866;DHT22;10593;48.398;10.698;2023-06-26T15:14:06;31.00;34.00
20866;DHT22;10593;48.398;10.698;2023-06-26T15:16:32;31.10;34.00
20866;DHT22;10593;48.398;10.698;2023-06-26T15:18:58;31.00;34.00
20866;DHT22;10593;48.398;10.698;2023-06-26T15:21:23;31.00;34.10
20866;DHT22;10593;48.398;10.698;2023-06-26T15:23:50;31.00;34.00
20866;DHT22;10593;48.398;10.698;2023-06-26T15:26:16;31.00;34.10
20866;DHT22;10593;48.398;10.698;2023-06-26T15:28:42;31.00;34.00
20866;DHT22;10593;48.398;10.698;2023-06-26T15:31:07;30.90;34.10
20866;DHT22;10593;48.398;10.698;2023-06-26T15:33:33;31.00;34.20
20866;DHT22;10593;48.398;10.698;2023-06-26T15:35:59;30.90;34.20
20866;DHT22;10593;48.398;10.698;2023-06-26T15:38:28;30.90;34.30
20866;DHT22;10593;48.398;10.698;2023-06-26T15:40:54;30.90;34.40